Time;durP1;ratioP1;P1;durP2;ratioP2;P2;SDS_P1;SDS_P2;PMS_P1;PMS_P2;Temp;Humidity;BMP_temperature;BMP_pressure;BME280_temperature;BME280_humidity;BME280_pressure;Samples;Min_cycle;Max_cycle;Signal;HPM_P1;HPM_P2
2023/09/05 00:02:14;;;;;;;14.90;10.35;;;;;;;;;;5034774;28;20034;-76
2023/09/05 00:04:42;;;;;;;13.25;9.27;;;;;;;;;;5034945;28;20444;-76
2023/09/05 00:07:09;;;;;;;11.60;9.20;;;;;;;;;;5034635;28;20128;-75
2023/09/05 00:09:36;;;;;;;12.85;10.55;;;;;;;;;;5034605;28;20033;-75
2023/09/05 00:12:02;;;;;;;14.48;10.20;;;;;;;;;;5034962;28;20028;-75
2023/09/05 00:14:28;;;;;;;15.20;11.15;;;;;;;;;;5034533;28;20022;-76
2023/09/05 00:16:54;;;;;;;14.68;10.45;;;;;;;;;;5034675;28;20025;-75
2023/09/05 00:19:20;;;;;;;16.00;10.60;;;;;;;;;;5034242;28;20042;-76
2023/09/05 00:21:46;;;;;;;12.60;9.95;;;;;;;;;;5034388;28;20484;-75
2023/09/05 00:24:25;;;;;;;13.52;10.05;;;;;;;;;;5034335;28;20025;-75
2023/09/05 00:26:52;;;;;;;13.25;9.98;;;;;;;;;;5034332;28;20026;-75
2023/09/05 00:29:21;;;;;;;13.73;9.95;;;;;;;;;;5034205;28;20075;-75
2023/09/05 00:31:47;;;;;;;13.82;10.15;;;;;;;;;;5034144;28;20014;-75
2023/09/05 00:34:14;;;;;;;12.98;9.18;;;;;;;;;;5034038;28;20044;-75
2023/09/05 00:36:40;;;;;;;15.23;9.73;;;;;;;;;;5034068;28;20052;-75
2023/09/05 00:39:07;;;;;;;13.73;10.30;;;;;;;;;;5034334;28;20440;-75
2023/09/05 00:41:34;;;;;;;13.77;10.35;;;;;;;;;;5033885;28;20029;-75
2023/09/05 00:44:00;;;;;;;15.85;10.13;;;;;;;;;;5034186;28;20456;-75
2023/09/05 00:46:28;;;;;;;14.55;10.73;;;;;;;;;;5033810;28;20026;-75
2023/09/05 00:48:57;;;;;;;13.68;10.05;;;;;;;;;;5033989;28;20095;-75
2023/09/05 00:51:27;;;;;;;13.68;10.20;;;;;;;;;;5015878;28;20044;-75
2023/09/05 00:53:53;;;;;;;13.20;10.30;;;;;;;;;;5034130;28;20021;-75
2023/09/05 00:56:19;;;;;;;15.95;10.60;;;;;;;;;;5033737;28;20029;-75
2023/09/05 00:58:45;;;;;;;14.63;10.70;;;;;;;;;;5033650;28;20025;-75
2023/09/05 01:01:11;;;;;;;15.38;11.60;;;;;;;;;;5033460;28;20092;-75
2023/09/05 01:03:37;;;;;;;15.40;11.20;;;;;;;;;;5033497;28;20444;-75
2023/09/05 01:06:07;;;;;;;16.98;12.00;;;;;;;;;;5033750;28;20037;-75
2023/09/05 01:08:41;;;;;;;15.75;11.95;;;;;;;;;;5033598;28;20102;-75
2023/09/05 01:11:08;;;;;;;14.75;10.93;;;;;;;;;;5033436;28;20449;-75
2023/09/05 01:13:38;;;;;;;14.50;10.75;;;;;;;;;;5033345;28;20025;-75
2023/09/05 01:16:04;;;;;;;18.38;11.57;;;;;;;;;;5033323;28;20358;-75
2023/09/05 01:18:33;;;;;;;14.10;11.18;;;;;;;;;;5032959;28;20071;-75
2023/09/05 01:21:18;;;;;;;16.70;12.20;;;;;;;;;;5033440;28;20109;-75
2023/09/05 01:23:50;;;;;;;14.75;11.40;;;;;;;;;;5033235;28;20040;-75
2023/09/05 01:26:16;;;;;;;15.65;12.10;;;;;;;;;;5033167;28;20032;-75
2023/09/05 01:28:44;;;;;;;16.67;12.35;;;;;;;;;;5033112;28;20487;-75
2023/09/05 01:31:10;;;;;;;15.25;11.85;;;;;;;;;;5033081;28;20392;-75
2023/09/05 01:33:38;;;;;;;17.02;12.77;;;;;;;;;;5032939;28;20029;-75
2023/09/05 01:36:04;;;;;;;16.95;12.80;;;;;;;;;;5032980;28;20026;-75
2023/09/05 01:38:30;;;;;;;17.58;12.57;;;;;;;;;;5033131;28;20025;-75
2023/09/05 01:40:56;;;;;;;15.88;13.02;;;;;;;;;;5032795;28;20036;-75
2023/09/05 01:43:22;;;;;;;16.48;12.52;;;;;;;;;;5032808;28;20017;-76
2023/09/05 01:45:48;;;;;;;16.35;12.50;;;;;;;;;;5032535;28;20053;-75
2023/09/05 01:48:14;;;;;;;17.00;13.02;;;;;;;;;;5032769;28;20095;-75
2023/09/05 01:50:40;;;;;;;15.90;12.13;;;;;;;;;;5032602;28;20087;-76
2023/09/05 01:53:06;;;;;;;16.88;13.23;;;;;;;;;;5032696;28;20066;-75
2023/09/05 01:55:32;;;;;;;18.85;12.88;;;;;;;;;;5032684;28;20026;-75
2023/09/05 01:57:58;;;;;;;16.90;13.63;;;;;;;;;;5032627;28;20025;-75
2023/09/05 02:00:24;;;;;;;17.00;12.93;;;;;;;;;;5032513;28;20155;-75
2023/09/05 02:02:50;;;;;;;17.55;13.48;;;;;;;;;;5032565;28;20021;-75
2023/09/05 02:05:16;;;;;;;17.13;13.05;;;;;;;;;;5032492;28;20041;-75
2023/09/05 02:07:42;;;;;;;18.20;13.15;;;;;;;;;;5032472;28;20021;-75
2023/09/05 02:10:08;;;;;;;18.88;12.77;;;;;;;;;;5032407;28;20034;-75
2023/09/05 02:12:35;;;;;;;18.95;14.25;;;;;;;;;;5032388;28;20043;-75
2023/09/05 02:15:03;;;;;;;18.77;14.20;;;;;;;;;;5032673;28;20026;-75
2023/09/05 02:17:30;;;;;;;18.90;14.43;;;;;;;;;;5031773;28;20077;-76
2023/09/05 02:19:59;;;;;;;19.58;13.70;;;;;;;;;;5032391;28;20029;-75
2023/09/05 02:22:25;;;;;;;19.27;14.00;;;;;;;;;;5032440;28;20087;-75
2023/09/05 02:24:51;;;;;;;17.52;13.90;;;;;;;;;;5032321;28;20473;-75
2023/09/05 02:27:17;;;;;;;19.65;14.93;;;;;;;;;;5032299;28;20096;-76
2023/09/05 02:29:56;;;;;;;19.00;13.68;;;;;;;;;;5032256;28;20393;-75
2023/09/05 02:32:22;;;;;;;18.85;14.57;;;;;;;;;;5032497;28;20022;-75
2023/09/05 02:34:52;;;;;;;19.35;13.77;;;;;;;;;;5032192;28;20021;-75
2023/09/05 02:37:18;;;;;;;19.13;14.00;;;;;;;;;;5032203;28;20021;-75
2023/09/05 02:39:45;;;;;;;19.80;13.75;;;;;;;;;;5032084;28;20026;-75
2023/09/05 02:42:11;;;;;;;17.65;14.15;;;;;;;;;;5032175;28;20053;-75
2023/09/05 02:44:37;;;;;;;19.42;14.43;;;;;;;;;;5032121;28;20084;-76
2023/09/05 02:47:03;;;;;;;20.10;13.48;;;;;;;;;;5032236;28;20021;-75
2023/09/05 02:49:29;;;;;;;18.73;13.75;;;;;;;;;;5032290;28;20108;-76
2023/09/05 02:51:57;;;;;;;20.70;14.30;;;;;;;;;;5032056;28;20104;-76
2023/09/05 02:54:23;;;;;;;17.73;13.98;;;;;;;;;;5032253;28;20044;-75
2023/09/05 02:56:49;;;;;;;17.77;14.13;;;;;;;;;;5032153;28;20025;-75
2023/09/05 02:59:15;;;;;;;19.92;13.65;;;;;;;;;;5032068;28;20029;-75
2023/09/05 03:01:41;;;;;;;19.38;13.75;;;;;;;;;;5032007;28;20443;-76
2023/09/05 03:04:07;;;;;;;19.17;14.50;;;;;;;;;;5035826;28;20036;-75
2023/09/05 03:06:33;;;;;;;19.25;13.85;;;;;;;;;;5035789;28;20021;-75
2023/09/05 03:08:59;;;;;;;18.20;13.93;;;;;;;;;;5035669;28;20029;-75
2023/09/05 03:11:25;;;;;;;17.75;14.05;;;;;;;;;;5035620;28;20415;-75
2023/09/05 03:13:51;;;;;;;18.58;14.80;;;;;;;;;;5035565;28;20030;-75
2023/09/05 03:16:17;;;;;;;18.98;13.73;;;;;;;;;;5035521;28;20022;-75
2023/09/05 03:18:43;;;;;;;20.67;14.77;;;;;;;;;;5034976;28;20140;-75
2023/09/05 03:21:10;;;;;;;19.23;14.10;;;;;;;;;;5035417;28;20033;-75
2023/09/05 03:23:36;;;;;;;18.33;14.13;;;;;;;;;;5035708;28;20061;-75
2023/09/05 03:26:02;;;;;;;18.35;14.02;;;;;;;;;;5035528;28;20021;-75
2023/09/05 03:28:38;;;;;;;18.60;14.75;;;;;;;;;;5017563;28;20028;-75
2023/09/05 03:31:04;;;;;;;18.20;13.57;;;;;;;;;;5035386;28;20029;-75
2023/09/05 03:33:30;;;;;;;19.10;13.98;;;;;;;;;;5035327;28;20029;-75
2023/09/05 03:35:56;;;;;;;19.17;14.45;;;;;;;;;;5035201;28;20025;-75
2023/09/05 03:38:22;;;;;;;17.70;13.95;;;;;;;;;;5035462;28;20024;-75
2023/09/05 03:40:48;;;;;;;20.58;14.48;;;;;;;;;;5035060;28;20369;-75
2023/09/05 03:43:14;;;;;;;20.27;14.50;;;;;;;;;;5035037;28;20036;-75
2023/09/05 03:45:40;;;;;;;19.13;14.82;;;;;;;;;;5034661;28;20029;-75
2023/09/05 03:48:07;;;;;;;22.60;15.60;;;;;;;;;;5035057;28;20056;-75
2023/09/05 03:50:33;;;;;;;22.90;15.30;;;;;;;;;;5034932;28;20376;-75
2023/09/05 03:52:59;;;;;;;18.90;14.55;;;;;;;;;;5034935;28;20441;-75
2023/09/05 03:55:25;;;;;;;24.40;15.00;;;;;;;;;;5034858;28;20465;-75
2023/09/05 03:57:50;;;;;;;18.00;13.77;;;;;;;;;;5034820;28;20025;-76
2023/09/05 04:00:17;;;;;;;21.90;14.43;;;;;;;;;;5034650;28;20044;-75
2023/09/05 04:02:43;;;;;;;18.95;14.20;;;;;;;;;;5034739;28;20075;-75
2023/09/05 04:05:11;;;;;;;19.38;14.00;;;;;;;;;;5034845;28;20029;-75
2023/09/05 04:07:36;;;;;;;20.73;14.20;;;;;;;;;;5035068;28;20056;-75
2023/09/05 04:10:03;;;;;;;20.10;14.45;;;;;;;;;;5034817;28;20057;-75
2023/09/05 04:12:29;;;;;;;20.90;14.20;;;;;;;;;;5034651;28;20044;-75
2023/09/05 04:14:55;;;;;;;18.27;14.00;;;;;;;;;;5034220;28;20369;-75
2023/09/05 04:17:21;;;;;;;18.65;13.60;;;;;;;;;;5034264;28;20064;-76
2023/09/05 04:19:47;;;;;;;18.73;14.13;;;;;;;;;;5034313;28;20083;-75
2023/09/05 04:22:13;;;;;;;17.85;13.43;;;;;;;;;;5034308;28;20090;-75
2023/09/05 04:24:39;;;;;;;17.80;13.63;;;;;;;;;;5033928;28;20026;-75
2023/09/05 04:27:05;;;;;;;16.85;13.40;;;;;;;;;;5034236;28;20026;-75
2023/09/05 04:29:31;;;;;;;18.83;14.00;;;;;;;;;;5034129;28;20108;-75
2023/09/05 04:31:57;;;;;;;16.75;12.18;;;;;;;;;;5034187;28;20053;-75
2023/09/05 04:34:23;;;;;;;16.65;12.43;;;;;;;;;;5033878;28;20056;-75
2023/09/05 04:36:49;;;;;;;17.83;12.30;;;;;;;;;;5033665;28;20043;-75
2023/09/05 04:39:15;;;;;;;16.98;13.32;;;;;;;;;;5034035;28;20018;-76
2023/09/05 04:41:41;;;;;;;17.83;12.95;;;;;;;;;;5033947;28;20029;-76
2023/09/05 04:44:07;;;;;;;17.15;12.70;;;;;;;;;;5033972;28;20033;-76
2023/09/05 04:46:38;;;;;;;18.02;12.45;;;;;;;;;;5033823;28;20025;-77
2023/09/05 04:49:04;;;;;;;15.88;12.57;;;;;;;;;;5033887;28;20027;-77
2023/09/05 04:51:30;;;;;;;16.20;12.18;;;;;;;;;;5016136;28;20572;-77
2023/09/05 04:53:56;;;;;;;16.13;12.63;;;;;;;;;;5033808;28;20021;-77
2023/09/05 04:56:22;;;;;;;16.48;12.15;;;;;;;;;;5033754;28;20083;-77
2023/09/05 04:58:49;;;;;;;19.05;13.63;;;;;;;;;;5033652;28;20423;-77
2023/09/05 05:01:17;;;;;;;18.52;13.02;;;;;;;;;;5033887;28;20120;-76
2023/09/05 05:03:43;;;;;;;17.48;13.80;;;;;;;;;;5015779;28;20507;-75
2023/09/05 05:06:09;;;;;;;18.63;13.45;;;;;;;;;;5033366;28;20031;-75
2023/09/05 05:08:35;;;;;;;20.02;13.57;;;;;;;;;;5033512;28;20018;-75
2023/09/05 05:11:05;;;;;;;18.27;13.60;;;;;;;;;;5033404;28;20580;-76
2023/09/05 05:13:31;;;;;;;18.08;13.10;;;;;;;;;;5033679;28;20029;-75
2023/09/05 05:15:57;;;;;;;17.50;12.75;;;;;;;;;;5033408;28;20025;-75
2023/09/05 05:18:23;;;;;;;14.77;11.40;;;;;;;;;;5006310;28;20042;-75
2023/09/05 05:20:49;;;;;;;13.13;10.77;;;;;;;;;;4993948;28;20038;-75
2023/09/05 05:23:15;;;;;;;16.48;11.93;;;;;;;;;;4994032;28;20129;-75
2023/09/05 05:25:41;;;;;;;15.80;12.00;;;;;;;;;;4993180;28;20031;-75
2023/09/05 05:28:08;;;;;;;15.48;10.95;;;;;;;;;;4993853;28;20026;-76
2023/09/05 05:30:37;;;;;;;15.38;11.07;;;;;;;;;;4994123;28;20085;-75
2023/09/05 05:33:03;;;;;;;12.95;10.48;;;;;;;;;;4993773;28;20030;-75
2023/09/05 05:35:29;;;;;;;14.40;10.25;;;;;;;;;;4993761;28;20038;-76
2023/09/05 05:37:55;;;;;;;13.05;9.90;;;;;;;;;;4993886;28;20037;-75
2023/09/05 05:40:21;;;;;;;13.68;10.23;;;;;;;;;;4993580;28;20034;-76
2023/09/05 05:42:47;;;;;;;15.98;11.55;;;;;;;;;;4993943;28;20029;-76
2023/09/05 05:45:14;;;;;;;15.93;12.60;;;;;;;;;;4993953;28;20026;-75
2023/09/05 05:47:40;;;;;;;15.82;11.88;;;;;;;;;;4994114;28;20076;-75
2023/09/05 05:50:09;;;;;;;17.20;12.10;;;;;;;;;;4993528;28;20030;-75
2023/09/05 05:52:35;;;;;;;16.27;11.70;;;;;;;;;;4993799;28;20015;-76
2023/09/05 05:55:01;;;;;;;16.08;11.57;;;;;;;;;;4993458;28;20489;-76
2023/09/05 05:57:27;;;;;;;16.00;11.98;;;;;;;;;;4993612;28;20109;-76
2023/09/05 05:59:53;;;;;;;16.90;12.20;;;;;;;;;;4993523;28;20034;-76
2023/09/05 06:02:19;;;;;;;16.38;11.68;;;;;;;;;;4993427;28;20033;-75
2023/09/05 06:04:45;;;;;;;17.42;11.90;;;;;;;;;;4993403;28;20101;-76
2023/09/05 06:07:11;;;;;;;19.05;12.80;;;;;;;;;;4993198;28;20032;-75
2023/09/05 06:09:37;;;;;;;17.30;12.98;;;;;;;;;;5008724;28;20026;-76
2023/09/05 06:12:04;;;;;;;17.67;12.70;;;;;;;;;;5012792;28;20052;-76
2023/09/05 06:14:30;;;;;;;16.63;12.70;;;;;;;;;;5012897;28;20049;-76
2023/09/05 06:16:56;;;;;;;16.00;12.68;;;;;;;;;;5012522;28;20065;-75
2023/09/05 06:19:22;;;;;;;17.92;12.52;;;;;;;;;;5029497;28;20045;-76
2023/09/05 06:21:48;;;;;;;18.23;12.50;;;;;;;;;;5032376;28;20105;-76
2023/09/05 06:24:14;;;;;;;18.23;12.38;;;;;;;;;;5032451;28;20034;-76
2023/09/05 06:26:41;;;;;;;16.00;12.43;;;;;;;;;;5032663;28;20022;-76
2023/09/05 06:29:08;;;;;;;16.98;12.30;;;;;;;;;;5032585;28;20018;-76
2023/09/05 06:31:34;;;;;;;15.90;11.70;;;;;;;;;;5032393;28;20071;-76
2023/09/05 06:34:00;;;;;;;16.90;12.20;;;;;;;;;;5032250;28;20029;-75
2023/09/05 06:36:26;;;;;;;16.75;11.32;;;;;;;;;;5033301;28;20029;-76
2023/09/05 06:38:53;;;;;;;15.60;11.55;;;;;;;;;;5035636;28;20030;-75
2023/09/05 06:41:19;;;;;;;14.55;11.02;;;;;;;;;;5036283;28;20060;-76
2023/09/05 06:43:45;;;;;;;13.75;11.45;;;;;;;;;;5036320;28;20448;-76
2023/09/05 06:46:11;;;;;;;15.60;11.23;;;;;;;;;;5036136;28;20061;-76
2023/09/05 06:48:40;;;;;;;14.20;11.18;;;;;;;;;;5036589;28;20059;-76
2023/09/05 06:51:06;;;;;;;14.13;11.25;;;;;;;;;;5018308;28;20395;-75
2023/09/05 06:53:33;;;;;;;12.85;10.43;;;;;;;;;;5036189;28;20033;-76
2023/09/05 06:55:59;;;;;;;10.75;8.95;;;;;;;;;;5036083;28;20059;-76
2023/09/05 06:58:26;;;;;;;10.98;9.80;;;;;;;;;;5036034;28;20108;-76
2023/09/05 07:00:55;;;;;;;10.60;8.52;;;;;;;;;;5035921;28;20037;-76
2023/09/05 07:03:25;;;;;;;9.27;8.27;;;;;;;;;;5035896;28;20036;-76
2023/09/05 07:05:54;;;;;;;11.38;9.10;;;;;;;;;;5035928;28;20025;-76
2023/09/05 07:08:21;;;;;;;8.90;7.87;;;;;;;;;;5035884;28;20033;-76
2023/09/05 07:10:48;;;;;;;9.60;7.90;;;;;;;;;;5036089;28;20788;-76
2023/09/05 07:13:16;;;;;;;9.60;8.30;;;;;;;;;;5035703;28;20389;-76
2023/09/05 07:15:43;;;;;;;9.07;7.68;;;;;;;;;;5036038;28;20026;-76
2023/09/05 07:18:09;;;;;;;8.25;7.43;;;;;;;;;;5034517;28;20054;-77
2023/09/05 07:20:35;;;;;;;10.48;7.63;;;;;;;;;;5035570;28;20434;-76
2023/09/05 07:23:01;;;;;;;9.85;7.30;;;;;;;;;;5035567;28;20483;-76
2023/09/05 07:25:27;;;;;;;8.75;7.43;;;;;;;;;;5035492;28;20368;-76
2023/09/05 07:27:53;;;;;;;9.00;7.63;;;;;;;;;;5035445;28;20025;-77
2023/09/05 07:30:19;;;;;;;8.25;7.18;;;;;;;;;;5034942;28;20384;-76
2023/09/05 07:32:45;;;;;;;8.35;7.25;;;;;;;;;;5035311;28;20075;-76
2023/09/05 07:35:11;;;;;;;8.73;6.82;;;;;;;;;;5035337;28;20023;-76
2023/09/05 07:37:38;;;;;;;7.85;6.50;;;;;;;;;;5035339;28;20546;-77
2023/09/05 07:40:05;;;;;;;7.97;6.90;;;;;;;;;;5034503;28;20033;-76
2023/09/05 07:42:31;;;;;;;7.38;6.68;;;;;;;;;;5035191;28;20022;-76
2023/09/05 07:44:57;;;;;;;7.13;6.53;;;;;;;;;;5035192;28;20515;-76
2023/09/05 07:47:23;;;;;;;7.47;6.78;;;;;;;;;;5034706;28;20133;-77
2023/09/05 07:49:49;;;;;;;8.80;6.97;;;;;;;;;;5033476;28;20030;-76
2023/09/05 07:52:15;;;;;;;7.20;6.50;;;;;;;;;;5034285;28;20033;-76
2023/09/05 07:54:41;;;;;;;7.15;6.45;;;;;;;;;;5035086;28;20032;-77
2023/09/05 07:57:07;;;;;;;7.53;6.43;;;;;;;;;;5035042;28;20025;-77
2023/09/05 07:59:33;;;;;;;7.07;6.35;;;;;;;;;;5034993;28;20032;-77
2023/09/05 08:02:00;;;;;;;7.30;6.38;;;;;;;;;;5034882;28;20045;-77
2023/09/05 08:04:29;;;;;;;6.55;5.95;;;;;;;;;;5035016;28;20342;-76
2023/09/05 08:06:55;;;;;;;6.88;6.18;;;;;;;;;;5035202;28;20026;-78
2023/09/05 08:09:21;;;;;;;6.40;5.80;;;;;;;;;;5022607;28;20029;-78
2023/09/05 08:11:47;;;;;;;6.22;5.63;;;;;;;;;;5034648;28;20369;-78
2023/09/05 08:14:13;;;;;;;5.90;5.25;;;;;;;;;;5034814;28;20021;-78
2023/09/05 08:16:39;;;;;;;7.70;5.57;;;;;;;;;;5026540;28;20037;-78
2023/09/05 08:19:05;;;;;;;5.65;5.00;;;;;;;;;;5013181;28;20065;-78
2023/09/05 08:21:32;;;;;;;6.00;5.50;;;;;;;;;;5014675;28;20493;-78
2023/09/05 08:23:58;;;;;;;6.72;6.13;;;;;;;;;;5023896;28;20024;-78
2023/09/05 08:26:25;;;;;;;6.50;5.88;;;;;;;;;;5034731;28;20116;-78
2023/09/05 08:28:51;;;;;;;7.57;6.18;;;;;;;;;;5034610;28;20068;-78
2023/09/05 08:31:17;;;;;;;6.38;5.70;;;;;;;;;;5034594;28;20451;-78
2023/09/05 08:33:43;;;;;;;6.45;5.68;;;;;;;;;;5034727;28;20022;-78
2023/09/05 08:36:09;;;;;;;5.63;5.13;;;;;;;;;;5034464;28;20025;-78
2023/09/05 08:38:39;;;;;;;6.22;5.63;;;;;;;;;;5016639;28;20033;-78
2023/09/05 08:41:06;;;;;;;5.82;5.32;;;;;;;;;;5034568;28;20038;-78
2023/09/05 08:43:33;;;;;;;5.63;5.13;;;;;;;;;;5016178;28;20032;-76
2023/09/05 08:46:02;;;;;;;6.20;4.93;;;;;;;;;;5014467;28;20366;-76
2023/09/05 08:48:28;;;;;;;5.93;5.35;;;;;;;;;;5014587;28;20018;-76
2023/09/05 08:50:55;;;;;;;6.05;4.95;;;;;;;;;;5012954;28;20484;-76
2023/09/05 08:53:23;;;;;;;5.10;4.70;;;;;;;;;;5014330;28;20026;-76
2023/09/05 08:55:49;;;;;;;5.53;5.03;;;;;;;;;;5013117;28;20116;-76
2023/09/05 08:58:16;;;;;;;5.40;4.57;;;;;;;;;;5014196;28;20034;-76
2023/09/05 09:00:44;;;;;;;5.05;4.55;;;;;;;;;;5013107;28;20068;-76
2023/09/05 09:03:10;;;;;;;5.45;4.53;;;;;;;;;;5014260;28;20033;-76
2023/09/05 09:05:37;;;;;;;5.63;4.00;;;;;;;;;;5014235;28;20052;-77
2023/09/05 09:08:03;;;;;;;4.40;3.95;;;;;;;;;;5014208;28;20029;-77
2023/09/05 09:10:29;;;;;;;5.00;4.50;;;;;;;;;;5013775;28;20033;-77
2023/09/05 09:12:56;;;;;;;5.10;4.38;;;;;;;;;;5013678;28;20515;-77
2023/09/05 09:15:26;;;;;;;4.70;4.30;;;;;;;;;;5024076;28;20026;-77
2023/09/05 09:17:53;;;;;;;4.72;4.30;;;;;;;;;;5032780;28;20046;-77
2023/09/05 09:20:20;;;;;;;3.78;3.47;;;;;;;;;;5033388;28;20483;-77
2023/09/05 09:22:49;;;;;;;5.85;4.03;;;;;;;;;;5033567;28;20021;-76
2023/09/05 09:25:22;;;;;;;4.10;3.70;;;;;;;;;;5033570;28;20023;-76
2023/09/05 09:27:52;;;;;;;4.53;3.63;;;;;;;;;;5033305;28;20024;-77
2023/09/05 09:30:21;;;;;;;3.53;3.15;;;;;;;;;;5033313;28;20029;-76
2023/09/05 09:32:47;;;;;;;;;;;;;;;;;;5033568;28;20029;-76
2023/09/05 09:35:13;;;;;;;7.45;3.40;;;;;;;;;;5033126;28;19943;-76
2023/09/05 09:37:39;;;;;;;5.20;3.45;;;;;;;;;;5032965;28;20030;-76
2023/09/05 09:40:06;;;;;;;6.15;3.05;;;;;;;;;;5033509;28;20084;-76
2023/09/05 09:42:33;;;;;;;3.60;3.10;;;;;;;;;;5032882;28;20060;-76
2023/09/05 09:44:59;;;;;;;3.25;2.95;;;;;;;;;;5033190;28;20469;-76
2023/09/05 09:47:27;;;;;;;3.30;3.00;;;;;;;;;;5032907;28;20029;-77
2023/09/05 09:49:53;;;;;;;3.05;2.75;;;;;;;;;;5032891;28;20109;-77
2023/09/05 09:52:20;;;;;;;3.38;2.67;;;;;;;;;;5032740;28;20100;-77
2023/09/05 09:54:46;;;;;;;3.53;2.47;;;;;;;;;;5032816;28;20022;-77
2023/09/05 09:57:15;;;;;;;2.90;2.55;;;;;;;;;;5032588;28;20052;-77
2023/09/05 09:59:47;;;;;;;4.63;2.80;;;;;;;;;;5032936;28;20067;-77
2023/09/05 10:02:15;;;;;;;2.70;2.45;;;;;;;;;;5014269;28;20034;-77
2023/09/05 10:04:41;;;;;;;3.33;2.60;;;;;;;;;;5032675;28;20036;-77
2023/09/05 10:07:08;;;;;;;3.50;2.70;;;;;;;;;;5032580;28;20053;-77
2023/09/05 10:09:37;;;;;;;4.57;2.63;;;;;;;;;;5032791;28;20467;-76
2023/09/05 10:12:07;;;;;;;3.22;2.60;;;;;;;;;;5032161;28;20071;-77
2023/09/05 10:14:35;;;;;;;3.35;2.70;;;;;;;;;;5032318;28;20018;-77
2023/09/05 10:17:02;;;;;;;4.55;2.60;;;;;;;;;;5033020;28;20042;-78
2023/09/05 10:19:31;;;;;;;2.83;2.60;;;;;;;;;;5032476;28;20477;-77
2023/09/05 10:22:05;;;;;;;3.28;2.60;;;;;;;;;;5032620;28;20041;-77
2023/09/05 10:24:32;;;;;;;3.05;2.10;;;;;;;;;;5032300;28;20039;-76
2023/09/05 10:26:58;;;;;;;2.55;2.22;;;;;;;;;;5032303;28;20052;-77
2023/09/05 10:29:31;;;;;;;3.58;2.22;;;;;;;;;;5032439;28;20109;-77
2023/09/05 10:31:57;;;;;;;3.60;2.30;;;;;;;;;;5014539;28;20044;-77
2023/09/05 10:34:30;;;;;;;4.05;2.50;;;;;;;;;;5032237;28;20029;-77
2023/09/05 10:36:58;;;;;;;3.03;2.38;;;;;;;;;;5015551;28;20040;-77
2023/09/05 10:39:27;;;;;;;2.65;2.30;;;;;;;;;;5012834;28;20022;-76
2023/09/05 10:41:53;;;;;;;3.30;2.67;;;;;;;;;;5012707;28;20033;-77
2023/09/05 10:44:19;;;;;;;3.25;2.60;;;;;;;;;;5012527;28;20028;-77
2023/09/05 10:46:50;;;;;;;2.70;2.33;;;;;;;;;;5012422;28;20029;-77
2023/09/05 10:49:16;;;;;;;5.55;2.25;;;;;;;;;;5012829;28;20037;-76
2023/09/05 10:52:01;;;;;;;2.42;2.22;;;;;;;;;;5012500;28;20057;-77
2023/09/05 10:54:28;;;;;;;3.85;2.35;;;;;;;;;;4994699;28;20113;-77
2023/09/05 10:56:54;;;;;;;2.67;2.10;;;;;;;;;;5012344;28;20364;-77
2023/09/05 10:59:27;;;;;;;2.75;1.95;;;;;;;;;;5012390;28;20492;-77
2023/09/05 11:02:00;;;;;;;3.00;2.00;;;;;;;;;;5012370;28;20052;-77
2023/09/05 11:04:27;;;;;;;2.85;2.13;;;;;;;;;;5012358;28;20427;-77
2023/09/05 11:06:58;;;;;;;1.83;1.73;;;;;;;;;;5012367;28;20053;-77
2023/09/05 11:09:27;;;;;;;2.70;1.80;;;;;;;;;;5012692;28;20049;-77
2023/09/05 11:11:53;;;;;;;3.20;1.77;;;;;;;;;;5012275;28;20084;-77
2023/09/05 11:14:29;;;;;;;2.85;1.92;;;;;;;;;;5012233;28;20105;-77
2023/09/05 11:16:56;;;;;;;2.33;1.90;;;;;;;;;;5012263;28;20026;-77
2023/09/05 11:19:35;;;;;;;2.20;1.88;;;;;;;;;;5012331;28;20121;-77
2023/09/05 11:22:11;;;;;;;2.10;1.90;;;;;;;;;;5012508;28;20141;-77
2023/09/05 11:24:45;;;;;;;2.63;1.60;;;;;;;;;;5015038;28;20080;-77
2023/09/05 11:27:11;;;;;;;4.18;1.55;;;;;;;;;;5015902;28;20022;-77
2023/09/05 11:29:39;;;;;;;3.05;1.65;;;;;;;;;;5015739;28;20026;-77
2023/09/05 11:32:06;;;;;;;2.33;1.50;;;;;;;;;;4998124;28;20033;-77
2023/09/05 11:34:33;;;;;;;2.22;1.70;;;;;;;;;;5015778;28;20076;-77
2023/09/05 11:37:00;;;;;;;2.95;1.60;;;;;;;;;;5015936;28;20021;-77
2023/09/05 11:39:30;;;;;;;4.10;1.70;;;;;;;;;;5015853;28;20080;-77
2023/09/05 11:41:58;;;;;;;4.72;1.60;;;;;;;;;;5015751;28;20037;-77
2023/09/05 11:44:38;;;;;;;1.90;1.70;;;;;;;;;;5015896;28;20071;-77
2023/09/05 11:47:04;;;;;;;1.50;1.40;;;;;;;;;;5022026;28;20017;-77
2023/09/05 11:49:32;;;;;;;2.08;1.83;;;;;;;;;;5015479;28;20022;-77
2023/09/05 11:52:00;;;;;;;3.50;2.00;;;;;;;;;;5015244;28;20075;-77
2023/09/05 11:54:26;;;;;;;2.00;1.90;;;;;;;;;;5015548;28;20026;-77
2023/09/05 11:56:52;;;;;;;1.80;1.70;;;;;;;;;;5015341;28;20018;-77
2023/09/05 11:59:18;;;;;;;2.50;1.83;;;;;;;;;;5015494;28;20489;-77
2023/09/05 12:01:44;;;;;;;3.25;1.80;;;;;;;;;;5015293;28;20033;-77
2023/09/05 12:04:10;;;;;;;2.60;1.88;;;;;;;;;;5014960;28;20463;-77
2023/09/05 12:06:36;;;;;;;3.33;2.00;;;;;;;;;;5015561;28;20100;-77
2023/09/05 12:09:02;;;;;;;1.63;1.52;;;;;;;;;;5015243;28;20053;-77
2023/09/05 12:11:29;;;;;;;1.83;1.67;;;;;;;;;;5015405;28;20038;-78
2023/09/05 12:13:58;;;;;;;1.92;1.80;;;;;;;;;;5014880;28;20034;-77
2023/09/05 12:16:24;;;;;;;2.30;1.75;;;;;;;;;;5014900;28;20385;-77
2023/09/05 12:19:00;;;;;;;3.30;1.90;;;;;;;;;;5014572;28;20439;-77
2023/09/05 12:21:39;;;;;;;3.55;1.90;;;;;;;;;;5014777;28;20393;-78
2023/09/05 12:24:21;;;;;;;3.90;2.00;;;;;;;;;;5014845;28;20029;-77
2023/09/05 12:26:49;;;;;;;2.50;1.90;;;;;;;;;;5014251;28;20535;-77
2023/09/05 12:29:16;;;;;;;3.05;1.60;;;;;;;;;;5014905;28;20028;-77
2023/09/05 12:31:44;;;;;;;2.30;1.70;;;;;;;;;;5014590;28;20104;-77
2023/09/05 12:34:10;;;;;;;3.78;1.80;;;;;;;;;;5014834;28;20022;-78
2023/09/05 12:36:36;;;;;;;2.58;1.90;;;;;;;;;;5014481;28;20054;-77
2023/09/05 12:39:02;;;;;;;1.85;1.75;;;;;;;;;;5014548;28;20064;-77
2023/09/05 12:41:28;;;;;;;2.15;1.90;;;;;;;;;;5014363;28;20483;-77
2023/09/05 12:43:55;;;;;;;2.05;1.90;;;;;;;;;;5013148;28;20037;-77
2023/09/05 12:46:21;;;;;;;2.28;1.63;;;;;;;;;;5013630;28;20573;-77
2023/09/05 12:48:53;;;;;;;2.60;1.73;;;;;;;;;;5013379;28;20022;-77
2023/09/05 12:51:19;;;;;;;2.47;1.90;;;;;;;;;;5013619;28;20109;-76
2023/09/05 12:53:47;;;;;;;1.98;1.88;;;;;;;;;;5012278;28;20031;-77
2023/09/05 12:56:14;;;;;;;1.98;1.75;;;;;;;;;;5013479;28;20022;-76
2023/09/05 12:58:39;;;;;;;1.77;1.67;;;;;;;;;;5014151;28;20500;-77
2023/09/05 13:01:06;;;;;;;1.98;1.70;;;;;;;;;;5013950;28;20042;-77
2023/09/05 13:03:32;;;;;;;2.03;1.83;;;;;;;;;;5014278;28;20022;-77
2023/09/05 13:05:58;;;;;;;4.47;1.92;;;;;;;;;;5013866;28;20022;-77
2023/09/05 13:08:24;;;;;;;1.90;1.70;;;;;;;;;;5014008;28;20026;-77
2023/09/05 13:10:51;;;;;;;2.92;1.85;;;;;;;;;;5027753;28;20088;-77
2023/09/05 13:13:16;;;;;;;2.05;1.85;;;;;;;;;;5033450;28;20101;-76
2023/09/05 13:15:43;;;;;;;2.10;1.60;;;;;;;;;;5033487;28;20084;-77
2023/09/05 13:18:10;;;;;;;1.83;1.40;;;;;;;;;;5033273;28;20042;-78
2023/09/05 13:20:36;;;;;;;1.70;1.60;;;;;;;;;;5033401;28;20061;-77
2023/09/05 13:23:02;;;;;;;1.88;1.67;;;;;;;;;;5034316;28;20036;-78
2023/09/05 13:25:36;;;;;;;1.75;1.25;;;;;;;;;;5033850;28;20025;-78
2023/09/05 13:28:04;;;;;;;2.83;1.67;;;;;;;;;;5033666;28;20508;-78
2023/09/05 13:30:30;;;;;;;3.97;1.58;;;;;;;;;;5033517;28;20349;-77
2023/09/05 13:32:56;;;;;;;2.28;1.90;;;;;;;;;;5033273;28;20037;-77
2023/09/05 13:35:23;;;;;;;2.03;1.70;;;;;;;;;;5033252;28;20045;-77
2023/09/05 13:37:48;;;;;;;1.90;1.70;;;;;;;;;;5033447;28;20104;-78
2023/09/05 13:40:14;;;;;;;2.20;1.85;;;;;;;;;;5033182;28;20461;-78
2023/09/05 13:42:40;;;;;;;1.73;1.63;;;;;;;;;;5033405;28;20101;-78
2023/09/05 13:45:07;;;;;;;4.32;1.85;;;;;;;;;;5033328;28;20116;-78
2023/09/05 13:47:36;;;;;;;1.67;1.58;;;;;;;;;;5017692;28;20041;-77
2023/09/05 13:50:02;;;;;;;2.78;1.50;;;;;;;;;;5013647;28;20029;-78
2023/09/05 13:52:28;;;;;;;3.30;1.70;;;;;;;;;;5013440;28;20108;-77
2023/09/05 13:54:54;;;;;;;1.92;1.40;;;;;;;;;;5014035;28;20114;-78
2023/09/05 13:57:22;;;;;;;1.95;1.60;;;;;;;;;;5013638;28;20037;-77
2023/09/05 13:59:48;;;;;;;2.63;1.98;;;;;;;;;;5014032;28;20056;-78
2023/09/05 14:02:14;;;;;;;1.48;1.38;;;;;;;;;;5013153;28;20069;-77
2023/09/05 14:04:40;;;;;;;2.80;1.85;;;;;;;;;;5013022;28;20104;-78
2023/09/05 14:07:06;;;;;;;5.18;1.70;;;;;;;;;;5013045;28;20113;-78
2023/09/05 14:09:34;;;;;;;3.53;1.48;;;;;;;;;;5013295;28;20026;-78
2023/09/05 14:12:00;;;;;;;2.83;1.60;;;;;;;;;;5013128;28;20072;-78
2023/09/05 14:14:26;;;;;;;1.75;1.60;;;;;;;;;;5012925;28;20065;-78
2023/09/05 14:16:54;;;;;;;1.40;1.30;;;;;;;;;;5014641;28;20029;-78
2023/09/05 14:19:22;;;;;;;1.83;1.45;;;;;;;;;;5015072;28;20046;-77
2023/09/05 14:21:48;;;;;;;1.50;1.40;;;;;;;;;;5016135;28;20018;-78
2023/09/05 14:24:14;;;;;;;3.35;1.60;;;;;;;;;;5015183;28;20025;-78
2023/09/05 14:26:40;;;;;;;1.80;1.70;;;;;;;;;;5013568;28;20465;-78
2023/09/05 14:29:07;;;;;;;1.42;1.27;;;;;;;;;;5013423;28;20026;-78
2023/09/05 14:31:33;;;;;;;1.70;1.60;;;;;;;;;;5014561;28;20054;-78